Time;durP1;ratioP1;P1;durP2;ratioP2;P2;SDS_P1;SDS_P2;PMS_P1;PMS_P2;Temp;Humidity;BMP_temperature;BMP_pressure;BME280_temperature;BME280_humidity;BME280_pressure;Samples;Min_cycle;Max_cycle;Signal;HPM_P1;HPM_P2
2021/07/26 00:01:52;;;;;;;1.40;1.10;;;18.80;74.50;;;;;;5020386;28;20151;-79
2021/07/26 00:04:18;;;;;;;1.40;1.20;;;18.80;75.30;;;;;;5027582;28;20033;-78
2021/07/26 00:06:45;;;;;;;1.50;1.35;;;18.80;75.20;;;;;;5017191;28;20113;-79
2021/07/26 00:09:10;;;;;;;1.48;1.38;;;18.80;76.20;;;;;;5017838;28;20033;-78
2021/07/26 00:11:36;;;;;;;1.40;1.30;;;18.80;75.60;;;;;;5017983;28;20034;-79
2021/07/26 00:14:02;;;;;;;1.20;1.10;;;18.80;75.40;;;;;;5017814;28;20037;-79
2021/07/26 00:16:27;;;;;;;1.20;1.10;;;19.00;75.10;;;;;;5017725;28;20392;-79
2021/07/26 00:18:53;;;;;;;1.30;1.20;;;19.00;75.00;;;;;;5017701;28;20069;-79
2021/07/26 00:21:28;;;;;;;1.40;1.30;;;19.00;75.20;;;;;;5017784;28;20084;-79
2021/07/26 00:23:54;;;;;;;1.30;1.20;;;19.00;74.60;;;;;;5017806;28;20021;-79
2021/07/26 00:26:20;;;;;;;1.25;1.10;;;19.00;74.70;;;;;;5020002;28;20041;-79
2021/07/26 00:28:45;;;;;;;1.40;1.30;;;19.00;75.50;;;;;;5032868;28;20026;-78
2021/07/26 00:31:11;;;;;;;1.50;1.35;;;19.10;75.20;;;;;;5017656;28;20040;-79
2021/07/26 00:36:31;;;;;;;1.40;1.20;;;19.20;74.90;;;;;;5017511;28;20034;-79
2021/07/26 00:38:57;;;;;;;1.40;1.30;;;19.30;74.40;;;;;;5017549;28;20503;-79
2021/07/26 00:41:22;;;;;;;1.35;1.25;;;19.30;74.80;;;;;;5017597;28;20474;-79
2021/07/26 00:43:49;;;;;;;1.30;1.20;;;19.20;75.50;;;;;;5017276;28;20045;-79
2021/07/26 00:46:15;;;;;;;1.55;1.45;;;19.20;75.10;;;;;;5023109;28;20040;-78
2021/07/26 00:48:41;;;;;;;1.33;1.23;;;19.20;75.20;;;;;;5037076;28;20567;-79
2021/07/26 00:51:07;;;;;;;1.38;1.27;;;19.20;74.90;;;;;;5032628;28;20392;-79
2021/07/26 00:53:34;;;;;;;1.73;1.48;;;19.20;75.30;;;;;;5031906;28;20040;-79
2021/07/26 00:56:00;;;;;;;1.30;1.20;;;19.20;75.40;;;;;;5036995;28;20048;-79
2021/07/26 00:58:26;;;;;;;1.85;1.52;;;19.20;76.00;;;;;;5036965;28;20638;-79
2021/07/26 01:00:51;;;;;;;1.33;1.23;;;19.10;76.00;;;;;;5036791;28;20438;-79
2021/07/26 01:03:17;;;;;;;1.50;1.40;;;19.00;76.00;;;;;;5034866;28;20103;-78
2021/07/26 01:05:43;;;;;;;1.40;1.30;;;19.10;76.00;;;;;;5036734;28;20025;-79
2021/07/26 01:08:08;;;;;;;1.60;1.50;;;19.10;76.50;;;;;;5036723;28;20064;-79
2021/07/26 01:10:34;;;;;;;1.48;1.33;;;19.20;75.90;;;;;;5023909;28;20022;-79
2021/07/26 01:13:02;;;;;;;1.73;1.63;;;19.10;76.20;;;;;;5016809;28;20877;-78
2021/07/26 01:15:28;;;;;;;1.48;1.30;;;19.10;76.10;;;;;;5016651;28;20033;-79
2021/07/26 01:18:32;;;;;;;1.38;1.27;;;19.10;75.90;;;;;;5016663;28;20022;-79
2021/07/26 01:21:06;;;;;;;1.33;1.15;;;19.20;76.00;;;;;;5016682;28;20428;-79
2021/07/26 01:23:34;;;;;;;1.52;1.30;;;19.20;76.20;;;;;;5015730;28;20033;-79
2021/07/26 01:26:01;;;;;;;1.48;1.33;;;19.20;75.90;;;;;;5032994;28;20041;-79
2021/07/26 01:28:33;;;;;;;1.30;1.20;;;19.20;76.10;;;;;;5036273;28;20026;-79
2021/07/26 01:30:59;;;;;;;1.50;1.40;;;19.20;76.40;;;;;;5025418;28;20053;-79
2021/07/26 01:33:25;;;;;;;1.40;1.30;;;19.10;76.20;;;;;;5016130;28;20026;-79
2021/07/26 01:35:54;;;;;;;1.50;1.33;;;19.10;76.50;;;;;;5016357;28;20033;-79
2021/07/26 01:38:20;;;;;;;1.40;1.30;;;19.20;76.00;;;;;;5030673;28;20029;-79
2021/07/26 01:40:50;;;;;;;1.50;1.35;;;19.20;75.60;;;;;;5016406;28;20033;-79
2021/07/26 01:43:16;;;;;;;1.60;1.45;;;19.20;76.00;;;;;;5016340;28;20018;-79
2021/07/26 01:46:11;;;;;;;1.23;1.13;;;19.30;75.60;;;;;;5017553;28;20397;-78
2021/07/26 01:48:55;;;;;;;1.40;1.30;;;19.30;75.50;;;;;;5024613;28;20439;-79
2021/07/26 01:51:36;;;;;;;1.80;1.40;;;19.30;75.70;;;;;;5016064;28;20026;-79
2021/07/26 01:54:02;;;;;;;1.40;1.30;;;19.10;76.90;;;;;;5030819;28;20043;-79
2021/07/26 01:56:27;;;;;;;1.40;1.30;;;19.20;76.30;;;;;;5035902;28;20100;-79
2021/07/26 01:58:53;;;;;;;1.40;1.30;;;19.20;75.80;;;;;;5017360;28;20038;-78
2021/07/26 02:01:19;;;;;;;1.30;1.15;;;19.30;75.60;;;;;;5015928;28;20025;-79
2021/07/26 02:03:52;;;;;;;1.25;1.15;;;19.30;76.60;;;;;;5016012;28;20037;-79
2021/07/26 02:06:18;;;;;;;1.70;1.40;;;19.20;76.30;;;;;;5015768;28;20444;-79
2021/07/26 02:08:44;;;;;;;1.48;1.38;;;19.30;76.40;;;;;;5031039;28;20743;-79
2021/07/26 02:11:09;;;;;;;1.48;1.38;;;19.30;76.00;;;;;;5015843;28;20041;-79
2021/07/26 02:13:35;;;;;;;1.40;1.30;;;19.30;76.80;;;;;;5015769;28;20030;-79
2021/07/26 02:16:01;;;;;;;1.50;1.40;;;19.20;76.80;;;;;;5015663;28;20030;-79
2021/07/26 02:18:27;;;;;;;1.38;1.27;;;19.20;76.60;;;;;;5015819;28;20014;-79
2021/07/26 02:21:10;;;;;;;1.50;1.40;;;19.30;76.40;;;;;;5015995;28;20094;-79
2021/07/26 02:23:36;;;;;;;1.38;1.27;;;19.30;76.30;;;;;;5015419;28;20057;-79
2021/07/26 02:26:02;;;;;;;1.50;1.25;;;19.30;75.70;;;;;;5015472;28;20030;-79
2021/07/26 02:28:28;;;;;;;1.23;1.13;;;19.40;76.20;;;;;;5015655;28;20033;-79
2021/07/26 02:30:53;;;;;;;1.40;1.30;;;19.40;76.00;;;;;;5015757;28;20032;-79
2021/07/26 02:33:19;;;;;;;1.50;1.40;;;19.40;76.80;;;;;;5015574;28;20507;-79
2021/07/26 02:35:44;;;;;;;1.42;1.33;;;19.40;76.20;;;;;;5015352;28;20515;-79
2021/07/26 02:38:27;;;;;;;1.42;1.33;;;19.40;76.40;;;;;;5015330;28;20480;-79
2021/07/26 02:40:53;;;;;;;1.40;1.30;;;19.40;76.20;;;;;;5015625;28;20479;-79
2021/07/26 02:43:19;;;;;;;1.27;1.17;;;19.50;75.90;;;;;;5015225;28;20033;-79
2021/07/26 02:45:44;;;;;;;1.92;1.35;;;19.50;75.90;;;;;;5017022;28;20030;-78
2021/07/26 02:48:10;;;;;;;1.65;1.40;;;19.50;75.90;;;;;;5035090;28;20480;-79
2021/07/26 02:50:36;;;;;;;1.42;1.27;;;19.50;76.00;;;;;;5026423;28;20027;-79
2021/07/26 02:53:02;;;;;;;1.40;1.30;;;19.50;76.00;;;;;;5024675;28;20025;-79
2021/07/26 02:55:31;;;;;;;1.30;1.17;;;19.50;76.70;;;;;;5028947;28;20511;-79
2021/07/26 02:57:57;;;;;;;1.30;1.17;;;19.50;76.40;;;;;;5019401;28;20100;-79
2021/07/26 03:00:23;;;;;;;1.40;1.30;;;19.30;77.20;;;;;;5019229;28;20049;-79
2021/07/26 03:02:48;;;;;;;1.85;1.30;;;19.20;77.70;;;;;;5019343;28;20519;-79
2021/07/26 03:05:14;;;;;;;1.70;1.50;;;19.20;77.70;;;;;;5018939;28;20033;-78
2021/07/26 03:07:40;;;;;;;1.27;1.17;;;19.20;78.00;;;;;;5018868;28;20061;-78
2021/07/26 03:10:06;;;;;;;1.42;1.33;;;19.20;77.30;;;;;;5019120;28;20030;-79
2021/07/26 03:12:35;;;;;;;1.60;1.50;;;19.30;77.30;;;;;;5019152;28;20038;-79
2021/07/26 03:15:00;;;;;;;1.50;1.40;;;19.30;76.80;;;;;;5017531;28;20029;-79
2021/07/26 03:17:26;;;;;;;1.50;1.10;;;19.30;76.90;;;;;;5018733;28;20096;-79
2021/07/26 03:19:54;;;;;;;1.83;1.33;;;19.20;77.30;;;;;;5018934;28;20030;-78
2021/07/26 03:22:48;;;;;;;1.30;1.20;;;19.20;77.00;;;;;;5018890;28;20022;-79
2021/07/26 03:25:14;;;;;;;1.48;1.38;;;19.00;77.80;;;;;;5018755;28;20097;-79
2021/07/26 03:27:40;;;;;;;1.50;1.40;;;18.90;78.00;;;;;;5017430;28;20033;-79
2021/07/26 03:30:06;;;;;;;1.30;1.20;;;19.00;77.70;;;;;;5018417;28;20404;-78
2021/07/26 03:32:32;;;;;;;1.30;1.20;;;19.00;77.60;;;;;;5018702;28;20030;-79
2021/07/26 03:35:06;;;;;;;1.60;1.50;;;18.90;78.00;;;;;;5018263;28;20092;-79
2021/07/26 03:37:32;;;;;;;1.70;1.38;;;18.90;77.90;;;;;;5018376;28;20057;-79
2021/07/26 03:39:58;;;;;;;1.20;1.10;;;18.90;77.90;;;;;;5018652;28;20057;-78
2021/07/26 03:42:24;;;;;;;1.70;1.60;;;19.00;77.80;;;;;;5018443;28;20025;-78
2021/07/26 03:44:49;;;;;;;1.40;1.30;;;18.90;78.10;;;;;;5018517;28;20548;-79
2021/07/26 03:47:15;;;;;;;1.40;1.30;;;18.90;77.80;;;;;;5032430;28;20424;-79
2021/07/26 03:49:40;;;;;;;1.50;1.40;;;18.90;77.80;;;;;;5038119;28;20025;-78
2021/07/26 03:52:06;;;;;;;1.40;1.30;;;19.00;77.50;;;;;;5038105;28;20032;-79
2021/07/26 03:54:32;;;;;;;1.20;1.10;;;18.90;77.40;;;;;;5025178;28;20052;-79
2021/07/26 03:56:58;;;;;;;1.98;1.30;;;19.00;77.40;;;;;;5018336;28;20097;-78
2021/07/26 03:59:26;;;;;;;1.40;1.20;;;19.00;77.20;;;;;;5018081;28;20072;-78
2021/07/26 04:01:55;;;;;;;1.40;1.30;;;19.00;77.00;;;;;;5017182;28;20057;-78
2021/07/26 04:04:22;;;;;;;1.60;1.50;;;19.00;77.00;;;;;;5018159;28;20034;-79
2021/07/26 04:06:52;;;;;;;1.40;1.30;;;19.10;76.80;;;;;;5018015;28;20041;-79
2021/07/26 04:09:19;;;;;;;1.40;1.30;;;19.10;76.80;;;;;;5018139;28;20056;-79
2021/07/26 04:11:47;;;;;;;1.50;1.40;;;19.10;76.80;;;;;;5016802;28;20497;-79
2021/07/26 04:14:14;;;;;;;1.50;1.40;;;19.10;76.80;;;;;;5017727;28;20030;-78
2021/07/26 04:16:40;;;;;;;1.40;1.30;;;19.00;77.00;;;;;;5017740;28;20416;-79
2021/07/26 04:19:05;;;;;;;1.65;1.40;;;19.00;77.00;;;;;;5017954;28;20034;-79
2021/07/26 04:21:34;;;;;;;1.20;1.10;;;19.10;76.90;;;;;;5017873;28;20392;-79
2021/07/26 04:24:02;;;;;;;1.17;1.08;;;19.00;76.90;;;;;;5017629;28;20044;-79
2021/07/26 04:26:29;;;;;;;1.38;1.27;;;19.00;77.00;;;;;;5016476;28;20033;-79
2021/07/26 04:28:56;;;;;;;1.48;1.15;;;19.00;77.00;;;;;;5017941;28;20037;-79
2021/07/26 04:31:22;;;;;;;1.50;1.40;;;19.00;77.00;;;;;;5017296;28;20101;-79
2021/07/26 04:33:47;;;;;;;1.40;1.30;;;19.00;76.80;;;;;;5017342;28;20085;-79
2021/07/26 04:36:13;;;;;;;1.55;1.45;;;18.90;77.30;;;;;;5017456;28;20029;-78
2021/07/26 04:38:39;;;;;;;1.40;1.30;;;18.90;77.20;;;;;;5017355;28;20030;-78
2021/07/26 04:41:04;;;;;;;1.38;1.27;;;18.90;77.00;;;;;;5016357;28;20036;-79
2021/07/26 04:43:30;;;;;;;1.20;1.10;;;18.90;77.00;;;;;;5017247;28;20033;-79
2021/07/26 04:45:56;;;;;;;1.40;1.20;;;19.00;76.80;;;;;;5021007;28;20038;-87
2021/07/26 04:48:22;;;;;;;1.52;1.40;;;19.00;76.70;;;;;;5036372;28;20022;-87
2021/07/26 04:50:48;;;;;;;1.30;1.20;;;19.00;76.40;;;;;;5018832;28;20489;-79
2021/07/26 04:53:14;;;;;;;1.35;1.25;;;19.00;76.40;;;;;;5020053;28;20411;-84
2021/07/26 04:55:40;;;;;;;1.23;1.10;;;19.10;76.70;;;;;;5017562;28;20499;-81
2021/07/26 04:58:05;;;;;;;1.30;1.20;;;19.00;76.40;;;;;;5017177;28;20030;-84
2021/07/26 05:00:31;;;;;;;1.45;1.35;;;19.00;76.60;;;;;;5018997;28;20055;-85
2021/07/26 05:02:57;;;;;;;1.40;1.30;;;19.00;76.70;;;;;;5030411;28;20480;-84
2021/07/26 05:05:24;;;;;;;1.23;1.13;;;19.00;76.70;;;;;;5029895;28;20030;-80
2021/07/26 05:07:50;;;;;;;1.45;1.10;;;19.10;76.60;;;;;;5032199;28;20112;-82
2021/07/26 05:10:16;;;;;;;2.10;1.30;;;19.10;76.60;;;;;;5029270;28;20053;-89
2021/07/26 05:12:42;;;;;;;1.58;1.48;;;19.10;76.30;;;;;;5036350;28;20033;-84
2021/07/26 05:15:09;;;;;;;1.58;1.23;;;19.10;76.40;;;;;;5025880;28;20025;-83
2021/07/26 05:17:35;;;;;;;1.20;1.10;;;19.10;76.50;;;;;;5027314;28;20480;-86
2021/07/26 05:20:01;;;;;;;1.10;1.00;;;19.10;76.30;;;;;;5033495;28;20080;-83
2021/07/26 05:22:26;;;;;;;1.38;1.27;;;19.10;76.20;;;;;;5024844;28;20026;-80
2021/07/26 05:24:52;;;;;;;1.30;1.20;;;19.10;76.10;;;;;;5029889;28;20029;-86
2021/07/26 05:27:19;;;;;;;1.30;1.17;;;19.10;76.40;;;;;;5015118;28;20038;-86
2021/07/26 05:29:44;;;;;;;1.35;1.23;;;19.10;76.20;;;;;;5016373;28;20022;-87
2021/07/26 05:32:10;;;;;;;1.45;1.25;;;19.20;76.20;;;;;;5015178;28;20052;-87
2021/07/26 05:34:36;;;;;;;1.63;1.10;;;19.20;75.90;;;;;;5012635;28;20041;-86
2021/07/26 05:37:02;;;;;;;1.50;1.23;;;19.30;75.80;;;;;;5034827;28;20863;-85
2021/07/26 05:39:28;;;;;;;1.20;1.08;;;19.30;75.80;;;;;;5034872;28;20014;-85
2021/07/26 05:42:03;;;;;;;1.30;1.10;;;19.30;75.60;;;;;;5020710;28;20485;-85
2021/07/26 05:44:29;;;;;;;1.50;1.40;;;19.30;75.50;;;;;;5025190;28;20117;-85
2021/07/26 05:46:54;;;;;;;1.50;1.00;;;19.30;75.50;;;;;;5031425;28;20064;-86
2021/07/26 05:49:20;;;;;;;1.83;1.17;;;19.30;75.40;;;;;;5033407;28;20068;-87
2021/07/26 05:51:46;;;;;;;1.33;1.10;;;19.30;75.50;;;;;;5032945;28;20034;-84
2021/07/26 05:54:12;;;;;;;1.20;1.00;;;19.40;75.40;;;;;;5030466;28;20383;-85
2021/07/26 05:56:48;;;;;;;1.17;1.00;;;19.40;75.00;;;;;;5030772;28;20045;-84
2021/07/26 05:59:16;;;;;;;1.20;1.08;;;19.40;75.00;;;;;;5033350;28;20017;-85
2021/07/26 06:01:51;;;;;;;1.33;1.17;;;19.40;74.90;;;;;;5034444;28;20504;-84
2021/07/26 06:04:22;;;;;;;1.40;1.27;;;19.50;75.10;;;;;;5026351;28;20838;-84
2021/07/26 06:06:50;;;;;;;1.10;1.00;;;19.40;75.60;;;;;;5015807;28;20037;-84
2021/07/26 06:09:16;;;;;;;1.20;1.10;;;19.40;75.30;;;;;;5027779;28;20047;-84
2021/07/26 06:11:43;;;;;;;1.20;1.10;;;19.40;75.40;;;;;;5029249;28;20033;-84
2021/07/26 06:14:10;;;;;;;1.40;1.30;;;19.30;75.20;;;;;;5029501;28;20026;-84
2021/07/26 06:16:43;;;;;;;1.30;1.20;;;19.30;75.50;;;;;;5015648;28;20022;-84
2021/07/26 06:19:10;;;;;;;1.45;1.23;;;19.40;75.30;;;;;;5015677;28;20045;-83
2021/07/26 06:21:52;;;;;;;1.85;1.20;;;19.30;75.90;;;;;;5014654;28;20538;-84
2021/07/26 06:24:21;;;;;;;2.50;1.10;;;19.30;75.40;;;;;;5013650;28;20034;-83
2021/07/26 06:26:47;;;;;;;1.00;0.90;;;19.40;75.40;;;;;;5015394;28;20036;-84
2021/07/26 06:29:13;;;;;;;1.25;1.15;;;19.50;75.10;;;;;;5023166;28;20117;-84
2021/07/26 06:31:39;;;;;;;1.10;1.00;;;19.50;75.10;;;;;;5015389;28;20061;-84
2021/07/26 06:34:05;;;;;;;1.73;1.05;;;19.50;75.20;;;;;;5030176;28;20060;-85
2021/07/26 06:36:35;;;;;;;1.10;1.00;;;19.50;75.50;;;;;;5017605;28;20511;-84
2021/07/26 06:39:00;;;;;;;1.52;1.10;;;19.60;75.60;;;;;;5023471;28;20098;-84
2021/07/26 06:41:26;;;;;;;1.00;0.90;;;19.70;74.90;;;;;;5014917;28;20500;-84
2021/07/26 06:43:53;;;;;;;0.98;0.88;;;19.80;74.30;;;;;;5013638;28;20097;-84
2021/07/26 06:46:19;;;;;;;1.20;1.10;;;19.90;73.90;;;;;;5020858;28;20024;-84
2021/07/26 06:48:45;;;;;;;1.05;0.95;;;19.90;74.00;;;;;;5033907;28;20045;-84
2021/07/26 06:51:11;;;;;;;1.10;1.00;;;20.00;73.80;;;;;;5033508;28;20026;-84
2021/07/26 06:53:37;;;;;;;1.35;1.10;;;20.00;73.70;;;;;;5032387;28;20091;-84
2021/07/26 06:56:04;;;;;;;1.35;1.13;;;20.10;73.30;;;;;;5035155;28;20040;-84
2021/07/26 06:58:30;;;;;;;1.02;0.93;;;20.00;73.50;;;;;;5017722;28;20033;-84
2021/07/26 07:00:55;;;;;;;1.30;1.10;;;20.20;73.20;;;;;;5014457;28;20030;-84
2021/07/26 07:03:21;;;;;;;1.25;1.10;;;20.30;73.80;;;;;;5015153;28;20061;-84
2021/07/26 07:05:47;;;;;;;1.10;1.00;;;20.30;72.70;;;;;;5014765;28;20026;-84
2021/07/26 07:08:12;;;;;;;1.40;0.95;;;20.30;73.10;;;;;;5015011;28;20493;-84
2021/07/26 07:10:38;;;;;;;1.38;1.00;;;20.40;72.50;;;;;;5014781;28;20053;-84
2021/07/26 07:13:04;;;;;;;1.13;0.90;;;20.40;72.50;;;;;;5013725;28;20021;-85
2021/07/26 07:15:30;;;;;;;1.20;0.93;;;20.70;72.30;;;;;;5013721;28;20384;-84
2021/07/26 07:17:55;;;;;;;0.80;0.70;;;20.80;71.60;;;;;;5015198;28;20061;-84
2021/07/26 07:20:21;;;;;;;1.10;0.93;;;20.90;71.10;;;;;;5014860;28;20026;-85
2021/07/26 07:22:47;;;;;;;1.33;0.80;;;21.00;71.00;;;;;;5028438;28;20037;-84
2021/07/26 07:25:12;;;;;;;0.80;0.80;;;21.00;70.80;;;;;;5027816;28;20018;-84
2021/07/26 07:27:38;;;;;;;1.30;0.90;;;20.80;70.40;;;;;;5013451;28;20041;-84
2021/07/26 07:30:04;;;;;;;0.98;0.80;;;20.80;71.00;;;;;;5014992;28;20029;-86
2021/07/26 07:32:32;;;;;;;1.95;0.85;;;20.80;71.20;;;;;;5014944;28;20069;-85
2021/07/26 07:34:57;;;;;;;1.02;0.80;;;20.80;71.10;;;;;;5014214;28;20092;-86
2021/07/26 07:37:25;;;;;;;1.00;0.80;;;20.80;70.90;;;;;;5030379;28;20038;-84
2021/07/26 07:39:50;;;;;;;1.00;0.70;;;20.80;70.90;;;;;;5018941;28;20395;-84
2021/07/26 07:42:16;;;;;;;1.15;0.80;;;20.90;70.70;;;;;;5018276;28;20100;-84
2021/07/26 07:44:42;;;;;;;1.10;0.70;;;20.90;70.30;;;;;;5017765;28;20034;-84
2021/07/26 07:47:11;;;;;;;0.80;0.70;;;20.90;70.40;;;;;;5023713;28;20048;-85
2021/07/26 07:49:37;;;;;;;1.10;0.90;;;20.90;70.40;;;;;;5018403;28;20488;-84
2021/07/26 07:52:02;;;;;;;0.80;0.68;;;21.00;70.10;;;;;;5016820;28;20041;-85
2021/07/26 07:54:28;;;;;;;0.80;0.60;;;21.20;69.40;;;;;;5020443;28;20033;-84
2021/07/26 07:56:54;;;;;;;0.70;0.50;;;21.30;69.10;;;;;;5017962;28;20540;-84
2021/07/26 07:59:19;;;;;;;0.68;0.50;;;21.50;68.50;;;;;;5017794;28;20029;-85
2021/07/26 08:01:45;;;;;;;1.52;0.60;;;21.70;67.20;;;;;;5016152;28;20030;-84
2021/07/26 08:04:11;;;;;;;0.75;0.60;;;21.80;67.20;;;;;;5026669;28;20113;-84
2021/07/26 08:06:40;;;;;;;0.68;0.60;;;21.80;67.40;;;;;;5021944;28;20526;-85
2021/07/26 08:09:07;;;;;;;0.60;0.50;;;21.70;67.60;;;;;;5019212;28;20382;-84
2021/07/26 08:11:33;;;;;;;1.08;0.70;;;21.80;67.70;;;;;;5033294;28;20045;-85
2021/07/26 08:13:58;;;;;;;1.13;0.60;;;22.00;67.30;;;;;;5017598;28;20034;-88
2021/07/26 08:16:24;;;;;;;1.20;0.57;;;22.00;66.60;;;;;;5028089;28;20025;-86
2021/07/26 08:18:50;;;;;;;0.68;0.52;;;22.10;66.50;;;;;;5036420;28;20499;-86
2021/07/26 08:21:16;;;;;;;1.10;0.60;;;22.60;65.60;;;;;;5037650;28;20024;-85
2021/07/26 08:23:42;;;;;;;0.80;0.50;;;23.00;64.00;;;;;;5031113;28;20033;-87
2021/07/26 08:26:08;;;;;;;0.57;0.43;;;22.90;63.60;;;;;;5032632;28;20030;-85
2021/07/26 08:28:33;;;;;;;0.73;0.52;;;23.00;63.80;;;;;;5017626;28;20123;-85
2021/07/26 08:31:01;;;;;;;1.20;0.60;;;22.90;63.70;;;;;;5017572;28;20037;-85
2021/07/26 08:33:27;;;;;;;1.48;0.75;;;22.90;63.70;;;;;;5017486;28;20076;-87
2021/07/26 08:35:52;;;;;;;1.65;0.50;;;23.20;63.60;;;;;;5017650;28;20025;-85
2021/07/26 08:38:18;;;;;;;0.70;0.50;;;23.30;62.40;;;;;;5016967;28;20056;-86
2021/07/26 08:40:45;;;;;;;0.68;0.50;;;24.50;60.00;;;;;;5017591;28;20506;-86
2021/07/26 08:43:11;;;;;;;0.90;0.60;;;26.00;56.30;;;;;;5017557;28;20508;-86
2021/07/26 08:45:37;;;;;;;0.68;0.40;;;27.80;49.90;;;;;;5017244;28;20037;-86
2021/07/26 08:48:09;;;;;;;0.52;0.40;;;29.10;46.80;;;;;;5027964;28;20017;-87
2021/07/26 08:50:36;;;;;;;0.63;0.32;;;30.00;45.40;;;;;;5025495;28;20488;-84
2021/07/26 08:53:04;;;;;;;0.50;0.30;;;30.30;43.30;;;;;;5028901;28;20055;-83
2021/07/26 08:55:32;;;;;;;0.33;0.20;;;31.00;42.40;;;;;;5027552;28;20110;-84
2021/07/26 08:57:59;;;;;;;0.80;0.40;;;30.40;43.40;;;;;;5031616;28;20472;-83
2021/07/26 09:00:25;;;;;;;0.40;0.20;;;29.80;44.60;;;;;;5036957;28;20472;-86
2021/07/26 09:02:51;;;;;;;0.30;0.20;;;30.70;43.30;;;;;;5024041;28;20049;-84
2021/07/26 09:05:18;;;;;;;0.47;0.30;;;31.70;40.70;;;;;;5025041;28;20026;-85
2021/07/26 09:07:45;;;;;;;0.47;0.25;;;31.70;41.00;;;;;;5026282;28;20096;-84
2021/07/26 09:10:21;;;;;;;0.77;0.30;;;32.10;40.20;;;;;;5033771;28;20056;-83
2021/07/26 09:12:49;;;;;;;0.80;0.40;;;32.80;39.60;;;;;;5020185;28;20457;-83
2021/07/26 09:15:30;;;;;;;0.70;0.30;;;32.30;38.10;;;;;;5036361;28;20052;-84
2021/07/26 09:18:02;;;;;;;0.50;0.30;;;31.80;39.00;;;;;;5034782;28;20041;-84
2021/07/26 09:20:29;;;;;;;0.38;0.20;;;32.20;39.50;;;;;;5016843;28;20045;-84
2021/07/26 09:22:57;;;;;;;0.47;0.20;;;33.00;37.30;;;;;;5030529;28;20113;-84
2021/07/26 09:25:28;;;;;;;0.40;0.30;;;33.70;36.80;;;;;;5028551;28;20034;-85
2021/07/26 09:27:59;;;;;;;0.32;0.30;;;33.90;36.20;;;;;;5025541;28;20085;-84
2021/07/26 09:30:27;;;;;;;0.45;0.25;;;34.70;35.80;;;;;;5026714;28;20029;-84
2021/07/26 09:32:53;;;;;;;0.83;0.20;;;35.20;34.50;;;;;;5025794;28;20102;-85
2021/07/26 09:35:25;;;;;;;0.32;0.20;;;33.80;35.60;;;;;;5024212;28;20109;-84
2021/07/26 09:38:01;;;;;;;0.30;0.20;;;32.60;37.50;;;;;;5027260;28;20037;-84
2021/07/26 09:40:34;;;;;;;0.45;0.20;;;31.30;39.50;;;;;;5025096;28;20026;-83
2021/07/26 09:43:21;;;;;;;0.50;0.20;;;30.60;41.30;;;;;;5023215;28;20024;-86
2021/07/26 09:45:48;;;;;;;0.28;0.10;;;30.00;42.70;;;;;;5033299;28;20026;-85
2021/07/26 09:48:16;;;;;;;0.30;0.10;;;29.60;43.60;;;;;;5021933;28;20586;-85
2021/07/26 09:50:47;;;;;;;0.43;0.20;;;29.30;44.40;;;;;;5016299;28;20036;-85
2021/07/26 09:53:31;;;;;;;0.50;0.20;;;29.30;43.80;;;;;;5023928;28;20021;-86
2021/07/26 09:55:58;;;;;;;0.40;0.30;;;29.20;44.60;;;;;;5035343;28;20025;-84
2021/07/26 09:58:37;;;;;;;0.40;0.20;;;29.80;44.40;;;;;;5035679;28;20028;-83
2021/07/26 10:01:03;;;;;;;;;;;30.40;40.40;;;;;;5026491;28;20022;-84
2021/07/26 10:03:29;;;;;;;0.20;0.10;;;30.60;41.80;;;;;;5016043;28;19960;-86
2021/07/26 10:05:55;;;;;;;0.30;0.20;;;30.40;41.90;;;;;;5015951;28;20029;-82
2021/07/26 10:08:21;;;;;;;0.28;0.10;;;30.30;42.10;;;;;;5018893;28;20018;-83
2021/07/26 10:10:47;;;;;;;0.32;0.10;;;30.30;42.60;;;;;;5029264;28;20045;-83
2021/07/26 10:13:13;;;;;;;0.40;0.10;;;29.60;42.90;;;;;;5032839;28;20018;-82
2021/07/26 10:15:39;;;;;;;0.50;0.17;;;29.00;43.70;;;;;;5034957;28;20128;-82
2021/07/26 10:18:06;;;;;;;0.73;0.20;;;28.40;46.00;;;;;;5027690;28;20591;-82
2021/07/26 10:20:39;;;;;;;0.40;0.20;;;28.10;46.30;;;;;;5030894;28;20029;-85
2021/07/26 10:23:15;;;;;;;0.38;0.25;;;27.90;47.00;;;;;;5035528;28;20018;-85
2021/07/26 10:26:08;;;;;;;0.17;0.17;;;27.70;47.90;;;;;;5017968;28;20046;-85
2021/07/26 10:28:43;;;;;;;0.30;0.20;;;27.60;48.30;;;;;;5019307;28;20550;-85
2021/07/26 10:31:27;;;;;;;0.22;0.20;;;27.30;47.00;;;;;;5015799;28;20511;-84
2021/07/26 10:34:04;;;;;;;0.50;0.30;;;27.00;48.00;;;;;;5015322;28;20580;-84
2021/07/26 10:36:42;;;;;;;0.32;0.20;;;26.40;48.40;;;;;;5015199;28;20065;-84
2021/07/26 10:39:10;;;;;;;0.75;0.30;;;26.60;48.70;;;;;;5030308;28;20496;-84
2021/07/26 10:41:42;;;;;;;0.20;0.13;;;26.90;49.30;;;;;;5033844;28;20022;-83
2021/07/26 10:44:28;;;;;;;0.20;0.10;;;26.80;48.40;;;;;;5033661;28;20087;-82
2021/07/26 10:46:55;;;;;;;0.20;0.10;;;27.00;48.50;;;;;;5022814;28;20100;-83
2021/07/26 10:49:44;;;;;;;0.30;0.20;;;27.20;48.90;;;;;;5015470;28;20057;-84
2021/07/26 10:52:31;;;;;;;0.45;0.25;;;26.90;48.10;;;;;;5015452;28;20030;-85
2021/07/26 10:54:59;;;;;;;0.40;0.20;;;26.50;49.10;;;;;;5014201;28;20045;-83
2021/07/26 10:57:48;;;;;;;0.55;0.28;;;26.30;50.60;;;;;;5024144;28;20465;-87
2021/07/26 11:00:18;;;;;;;0.40;0.20;;;26.30;50.10;;;;;;5023467;28;20021;-82
2021/07/26 11:02:46;;;;;;;0.50;0.30;;;26.60;49.10;;;;;;5027233;28;20473;-84
2021/07/26 11:05:27;;;;;;;0.20;0.10;;;26.80;49.20;;;;;;5023463;28;20510;-81
2021/07/26 11:08:14;;;;;;;0.40;0.20;;;27.10;49.20;;;;;;5015482;28;20026;-81
2021/07/26 11:10:46;;;;;;;0.32;0.20;;;27.30;48.30;;;;;;5015465;28;20065;-81
2021/07/26 11:13:13;;;;;;;0.30;0.20;;;27.40;48.10;;;;;;5018952;28;20038;-81
2021/07/26 11:16:03;;;;;;;0.30;0.20;;;27.10;48.70;;;;;;5018482;28;20404;-81
2021/07/26 11:18:39;;;;;;;0.60;0.30;;;26.80;49.90;;;;;;5028726;28;20018;-81
2021/07/26 11:21:07;;;;;;;0.13;0.10;;;26.60;49.60;;;;;;5028372;28;20050;-81
2021/07/26 11:24:04;;;;;;;0.52;0.20;;;26.50;50.10;;;;;;5027933;28;20025;-82
2021/07/26 11:26:31;;;;;;;0.30;0.20;;;26.30;50.10;;;;;;5025383;28;20112;-81
2021/07/26 11:29:09;;;;;;;0.40;0.20;;;26.10;52.10;;;;;;5024645;28;20030;-81
2021/07/26 11:31:38;;;;;;;0.57;0.30;;;26.30;52.40;;;;;;5026090;28;20131;-82
2021/07/26 11:34:06;;;;;;;0.30;0.20;;;26.40;51.50;;;;;;5026431;28;20049;-82
2021/07/26 11:36:32;;;;;;;0.30;0.20;;;26.70;50.60;;;;;;5029744;28;20021;-81
2021/07/26 11:39:00;;;;;;;0.30;0.20;;;26.70;52.90;;;;;;5037195;28;20028;-81
2021/07/26 11:41:26;;;;;;;0.40;0.20;;;27.00;52.20;;;;;;5035768;28;20812;-81
2021/07/26 11:43:53;;;;;;;0.50;0.20;;;27.30;48.90;;;;;;5036068;28;20036;-81
2021/07/26 11:46:20;;;;;;;0.10;0.10;;;27.10;49.80;;;;;;5031321;28;20094;-81
2021/07/26 11:48:50;;;;;;;0.17;0.10;;;26.80;49.20;;;;;;5038391;28;20021;-81
2021/07/26 11:51:24;;;;;;;;;;;26.50;50.30;;;;;;5038969;28;20387;-79
2021/07/26 11:54:04;;;;;;;0.20;0.10;;;26.20;51.20;;;;;;5038011;28;20015;-79
2021/07/26 11:56:30;;;;;;;;;;;26.00;51.40;;;;;;5027970;28;20032;-81
2021/07/26 11:59:19;;;;;;;0.20;0.10;;;26.00;52.70;;;;;;5026776;28;19941;-81
2021/07/26 12:01:55;;;;;;;0.30;0.20;;;25.90;51.50;;;;;;5027864;28;20030;-80
2021/07/26 12:04:24;;;;;;;0.20;0.10;;;25.80;51.70;;;;;;5028466;28;20025;-81
2021/07/26 12:07:03;;;;;;;0.30;0.20;;;25.90;51.30;;;;;;5036563;28;20037;-83
2021/07/26 12:09:29;;;;;;;0.40;0.30;;;26.00;50.60;;;;;;5038048;28;20056;-82
2021/07/26 12:12:16;;;;;;;0.75;0.30;;;26.30;48.90;;;;;;5028493;28;20061;-83
2021/07/26 12:14:44;;;;;;;0.30;0.20;;;26.70;49.00;;;;;;5017109;28;20072;-81
2021/07/26 12:17:12;;;;;;;0.20;0.10;;;27.10;48.80;;;;;;5017616;28;20079;-82
2021/07/26 12:19:40;;;;;;;0.50;0.20;;;27.40;48.20;;;;;;5017755;28;20068;-87
2021/07/26 12:22:39;;;;;;;0.30;0.13;;;27.20;48.50;;;;;;5020719;28;20101;-87
2021/07/26 12:25:22;;;;;;;0.38;0.20;;;26.80;48.70;;;;;;5029371;28;20076;-85
2021/07/26 12:28:03;;;;;;;0.43;0.20;;;26.90;48.40;;;;;;5031304;28;20113;-89
2021/07/26 12:30:43;;;;;;;0.30;0.20;;;27.10;50.90;;;;;;5017627;28;20030;-87
2021/07/26 12:33:12;;;;;;;0.52;0.20;;;27.00;50.10;;;;;;5016730;28;20040;-84
2021/07/26 12:35:37;;;;;;;0.60;0.20;;;26.90;49.80;;;;;;5016921;28;20045;-83
2021/07/26 12:38:17;;;;;;;0.30;0.17;;;26.90;49.60;;;;;;5017594;28;20033;-85
2021/07/26 12:40:46;;;;;;;0.38;0.13;;;27.20;49.20;;;;;;5017172;28;20025;-82
2021/07/26 12:43:16;;;;;;;0.20;0.20;;;27.30;48.80;;;;;;5016089;28;20053;-82
2021/07/26 12:46:05;;;;;;;0.43;0.20;;;27.00;49.00;;;;;;5018775;28;20026;-84
2021/07/26 12:48:32;;;;;;;0.60;0.30;;;27.00;49.40;;;;;;5034962;28;20025;-83
2021/07/26 12:50:59;;;;;;;0.45;0.20;;;27.10;48.90;;;;;;5017282;28;20028;-80
2021/07/26 12:53:26;;;;;;;0.40;0.10;;;27.20;49.80;;;;;;5025620;28;20033;-82
2021/07/26 12:55:53;;;;;;;0.88;0.20;;;27.30;49.70;;;;;;5032485;28;20037;-84
2021/07/26 12:58:19;;;;;;;0.38;0.20;;;27.10;49.40;;;;;;5017022;28;20398;-83
2021/07/26 13:00:47;;;;;;;0.47;0.20;;;27.10;50.10;;;;;;5017133;28;20392;-87